createdAt,value
2019-02-06T00:00:26.384Z,-5.97
2019-02-06T00:01:18.005Z,-5.88
2019-02-06T00:02:17.977Z,-6.21
2019-02-06T00:03:17.963Z,-6.40
2019-02-06T00:04:17.951Z,-6.58
2019-02-06T00:05:17.938Z,-6.52
2019-02-06T00:06:17.916Z,-6.48
2019-02-06T00:07:17.904Z,-6.52
2019-02-06T00:08:17.890Z,-6.55
2019-02-06T00:09:17.870Z,-6.44
2019-02-06T00:10:17.886Z,-6.59
2019-02-06T00:11:17.842Z,-6.50
2019-02-06T00:12:18.694Z,-6.58
2019-02-06T00:13:17.817Z,-6.66
2019-02-06T00:14:17.806Z,-6.54
2019-02-06T00:15:17.779Z,-6.52
2019-02-06T00:16:17.771Z,-6.47
2019-02-06T00:17:17.746Z,-6.30
2019-02-06T00:18:17.735Z,-6.21
2019-02-06T00:19:17.721Z,-6.02
2019-02-06T00:20:17.706Z,-5.95
2019-02-06T00:21:20.489Z,-5.77
2019-02-06T00:22:17.671Z,-5.82
2019-02-06T00:23:17.657Z,-5.73
2019-02-06T00:24:17.644Z,-5.55
2019-02-06T00:25:17.626Z,-5.38
2019-02-06T00:26:17.610Z,-5.33
2019-02-06T00:27:17.595Z,-5.25
2019-02-06T00:28:17.579Z,-5.35
2019-02-06T00:29:17.554Z,-5.37
2019-02-06T00:30:17.550Z,-5.55
2019-02-06T00:31:17.527Z,-5.67
2019-02-06T00:32:17.518Z,-5.65
2019-02-06T00:33:17.508Z,-5.59
2019-02-06T00:34:17.490Z,-5.54
2019-02-06T00:35:25.509Z,-5.59
2019-02-06T00:36:17.459Z,-5.61
2019-02-06T00:37:17.435Z,-5.59
2019-02-06T00:38:17.448Z,-5.62
2019-02-06T00:39:17.419Z,-5.69
2019-02-06T00:40:17.404Z,-5.73
2019-02-06T00:41:17.386Z,-5.87
2019-02-06T00:42:17.359Z,-6.12
2019-02-06T00:43:17.356Z,-6.15
2019-02-06T00:44:17.341Z,-6.13
2019-02-06T00:45:17.324Z,-6.23
2019-02-06T00:46:17.309Z,-6.01
2019-02-06T00:47:17.294Z,-6.08
2019-02-06T00:48:17.278Z,-6.00
2019-02-06T00:49:17.260Z,-5.95
2019-02-06T00:50:17.247Z,-5.94
2019-02-06T00:51:17.235Z,-5.91
2019-02-06T00:52:17.218Z,-6.00
2019-02-06T00:53:17.203Z,-5.94
2019-02-06T00:54:17.188Z,-5.97
2019-02-06T00:55:17.168Z,-6.06
2019-02-06T00:56:17.161Z,-5.91
2019-02-06T00:57:17.142Z,-5.90
2019-02-06T00:58:17.118Z,-5.90
2019-02-06T00:59:17.112Z,-5.79
2019-02-06T01:00:17.098Z,-5.77
2019-02-06T01:01:17.081Z,-5.69
2019-02-06T01:02:17.121Z,-5.63
2019-02-06T01:03:17.052Z,-5.58
2019-02-06T01:04:17.036Z,-5.52
2019-02-06T01:05:17.020Z,-5.58
2019-02-06T01:06:16.996Z,-5.61
2019-02-06T01:07:16.990Z,-5.63
2019-02-06T01:08:16.975Z,-5.62
2019-02-06T01:09:16.962Z,-5.52
2019-02-06T01:10:17.000Z,-5.49
2019-02-06T01:11:16.930Z,-5.51
2019-02-06T01:12:16.913Z,-5.49
2019-02-06T01:13:16.899Z,-5.54
2019-02-06T01:14:16.883Z,-5.61
2019-02-06T01:15:16.908Z,-5.61
2019-02-06T01:16:16.890Z,-5.55
2019-02-06T01:17:16.951Z,-5.54
2019-02-06T01:18:16.823Z,-5.44
2019-02-06T01:19:16.808Z,-5.52
2019-02-06T01:20:16.795Z,-5.54
2019-02-06T01:21:16.777Z,-5.51
2019-02-06T01:22:16.790Z,-5.33
2019-02-06T01:23:16.751Z,-5.23
2019-02-06T01:24:16.733Z,-5.11
2019-02-06T01:25:16.720Z,-5.04
2019-02-06T01:26:16.704Z,-5.08
2019-02-06T01:27:16.698Z,-5.17
2019-02-06T01:28:16.674Z,-5.07
2019-02-06T01:29:16.659Z,-5.16
2019-02-06T01:30:16.649Z,-5.01
2019-02-06T01:31:16.631Z,-5.08
2019-02-06T01:32:16.616Z,-5.08
2019-02-06T01:33:16.607Z,-5.12
2019-02-06T01:34:16.586Z,-4.98
2019-02-06T01:35:16.621Z,-5.07
2019-02-06T01:36:16.558Z,-4.98
2019-02-06T01:37:16.572Z,-5.01
2019-02-06T01:38:16.525Z,-4.97
2019-02-06T01:39:16.511Z,-5.03
2019-02-06T01:40:16.495Z,-4.95
2019-02-06T01:41:16.482Z,-5.05
2019-02-06T01:42:16.466Z,-5.05
2019-02-06T01:43:16.457Z,-5.23
2019-02-06T01:44:16.447Z,-5.27
2019-02-06T01:45:16.422Z,-5.30
2019-02-06T01:46:16.408Z,-5.19
2019-02-06T01:47:16.394Z,-5.26
2019-02-06T01:48:16.371Z,-5.40
2019-02-06T01:49:16.363Z,-5.55
2019-02-06T01:50:16.374Z,-5.52
2019-02-06T01:51:16.347Z,-5.55
2019-02-06T01:52:17.656Z,-5.56
2019-02-06T01:53:17.646Z,-5.61
2019-02-06T01:54:16.289Z,-5.56
2019-02-06T01:55:16.273Z,-5.59
2019-02-06T01:56:16.259Z,-5.63
2019-02-06T01:57:16.243Z,-5.73
2019-02-06T01:58:16.230Z,-5.65
2019-02-06T01:59:16.214Z,-5.82
2019-02-06T02:00:16.190Z,-5.69
2019-02-06T02:01:16.184Z,-5.67
2019-02-06T02:02:16.170Z,-5.77
2019-02-06T02:03:16.156Z,-5.72
2019-02-06T02:04:16.142Z,-5.82
2019-02-06T02:05:16.128Z,-5.77
2019-02-06T02:06:16.111Z,-5.74
2019-02-06T02:07:16.095Z,-5.76
2019-02-06T02:08:16.079Z,-5.80
2019-02-06T02:09:16.063Z,-5.76
2019-02-06T02:10:16.053Z,-5.88
2019-02-06T02:11:16.044Z,-5.92
2019-02-06T02:12:16.021Z,-5.79
2019-02-06T02:13:16.039Z,-5.79
2019-02-06T02:14:15.989Z,-5.76
2019-02-06T02:15:15.979Z,-5.72
2019-02-06T02:16:15.958Z,-5.65
2019-02-06T02:17:15.935Z,-5.56
2019-02-06T02:18:15.929Z,-5.54
2019-02-06T02:19:15.913Z,-5.47
2019-02-06T02:20:15.900Z,-5.54
2019-02-06T02:21:15.882Z,-5.40
2019-02-06T02:22:15.869Z,-5.34
2019-02-06T02:23:15.853Z,-5.34
2019-02-06T02:24:15.841Z,-5.40
2019-02-06T02:25:15.822Z,-5.22
2019-02-06T02:26:15.806Z,-5.16
2019-02-06T02:27:15.794Z,-5.30
2019-02-06T02:28:15.777Z,-5.26
2019-02-06T02:29:15.759Z,-5.40
2019-02-06T02:30:15.747Z,-5.38
2019-02-06T02:31:15.734Z,-5.55
2019-02-06T02:32:15.717Z,-5.55
2019-02-06T02:33:15.714Z,-5.51
2019-02-06T02:34:15.687Z,-5.58
2019-02-06T02:35:15.674Z,-5.54
2019-02-06T02:36:16.618Z,-5.52
2019-02-06T02:37:15.640Z,-5.54
2019-02-06T02:38:15.630Z,-5.51
2019-02-06T02:39:15.612Z,-5.49
2019-02-06T02:40:15.596Z,-5.41
2019-02-06T02:41:15.587Z,-5.27
2019-02-06T02:42:15.567Z,-5.27
2019-02-06T02:43:18.203Z,-5.23
2019-02-06T02:44:15.537Z,-5.22
2019-02-06T02:45:15.521Z,-5.16
2019-02-06T02:46:15.507Z,-5.07
2019-02-06T02:47:15.494Z,-4.94
2019-02-06T02:48:15.485Z,-4.97
2019-02-06T02:49:15.485Z,-4.87
2019-02-06T02:50:15.446Z,-4.91
2019-02-06T02:51:15.432Z,-5.00
2019-02-06T02:52:15.416Z,-5.08
2019-02-06T02:53:15.402Z,-5.03
2019-02-06T02:54:15.396Z,-4.95
2019-02-06T02:55:15.373Z,-5.03
2019-02-06T02:56:15.358Z,-5.00
2019-02-06T02:57:15.341Z,-4.95
2019-02-06T02:58:15.329Z,-4.87
2019-02-06T02:59:15.305Z,-4.83
2019-02-06T03:00:15.298Z,-4.91
2019-02-06T03:01:15.282Z,-4.94
2019-02-06T03:02:15.279Z,-5.07
2019-02-06T03:03:15.255Z,-5.05
2019-02-06T03:04:15.236Z,-4.94
2019-02-06T03:05:15.222Z,-5.01
2019-02-06T03:06:27.168Z,-5.03
2019-02-06T03:07:15.196Z,-5.08
2019-02-06T03:08:15.179Z,-5.04
2019-02-06T03:09:15.174Z,-5.11
2019-02-06T03:10:15.171Z,-5.17
2019-02-06T03:11:15.139Z,-5.14
2019-02-06T03:12:15.120Z,-5.12
2019-02-06T03:13:15.104Z,-5.12
2019-02-06T03:14:15.081Z,-5.12
2019-02-06T03:15:15.076Z,-5.14
2019-02-06T03:16:15.060Z,-5.17
2019-02-06T03:17:15.045Z,-5.16
2019-02-06T03:18:15.031Z,-5.23
2019-02-06T03:19:15.009Z,-5.22
2019-02-06T03:20:14.995Z,-5.25
2019-02-06T03:21:14.989Z,-5.34
2019-02-06T03:22:14.972Z,-5.35
2019-02-06T03:23:14.961Z,-5.41
2019-02-06T03:24:14.944Z,-5.40
2019-02-06T03:25:14.933Z,-5.56
2019-02-06T03:26:14.913Z,-5.54
2019-02-06T03:27:14.897Z,-5.61
2019-02-06T03:28:14.870Z,-5.49
2019-02-06T03:29:14.888Z,-5.43
2019-02-06T03:30:14.853Z,-5.49
2019-02-06T03:31:14.846Z,-5.40
2019-02-06T03:32:14.818Z,-5.31
2019-02-06T03:33:14.800Z,-5.43
2019-02-06T03:34:14.793Z,-5.41
2019-02-06T03:35:14.779Z,-5.38
2019-02-06T03:36:14.761Z,-5.33
2019-02-06T03:37:14.734Z,-5.41
2019-02-06T03:38:14.735Z,-5.37
2019-02-06T03:39:14.716Z,-5.33
2019-02-06T03:40:14.700Z,-5.40
2019-02-06T03:41:14.694Z,-5.51
2019-02-06T03:42:14.671Z,-5.47
2019-02-06T03:43:14.659Z,-5.40
2019-02-06T03:44:14.629Z,-5.37
2019-02-06T03:45:14.626Z,-5.38
2019-02-06T03:46:14.611Z,-5.49
2019-02-06T03:47:14.594Z,-5.40
2019-02-06T03:48:14.579Z,-5.51
2019-02-06T03:49:14.568Z,-5.55
2019-02-06T03:50:14.548Z,-5.49
2019-02-06T03:51:14.536Z,-5.55
2019-02-06T03:52:14.520Z,-5.45
2019-02-06T03:53:14.507Z,-5.52
2019-02-06T03:54:14.489Z,-5.43
2019-02-06T03:55:14.474Z,-5.38
2019-02-06T03:56:14.459Z,-5.51
2019-02-06T03:57:14.434Z,-5.40
2019-02-06T03:58:14.431Z,-5.52
2019-02-06T03:59:14.416Z,-5.40
2019-02-06T04:00:14.406Z,-5.40
2019-02-06T04:01:14.389Z,-5.34
2019-02-06T04:02:14.368Z,-5.38
2019-02-06T04:03:14.393Z,-5.43
2019-02-06T04:04:14.339Z,-5.56
2019-02-06T04:05:14.324Z,-5.63
2019-02-06T04:06:14.309Z,-5.56
2019-02-06T04:07:14.301Z,-5.61
2019-02-06T04:08:14.278Z,-5.65
2019-02-06T04:09:14.265Z,-5.72
2019-02-06T04:10:14.252Z,-5.54
2019-02-06T04:11:14.236Z,-5.61
2019-02-06T04:12:14.217Z,-5.56
2019-02-06T04:13:14.221Z,-5.59
2019-02-06T04:14:14.194Z,-5.61
2019-02-06T04:15:14.180Z,-5.63
2019-02-06T04:16:14.159Z,-5.61
2019-02-06T04:17:14.140Z,-5.54
2019-02-06T04:18:14.133Z,-5.56
2019-02-06T04:19:14.113Z,-5.61
2019-02-06T04:20:14.104Z,-5.62
2019-02-06T04:21:14.085Z,-5.61
2019-02-06T04:22:14.079Z,-5.54
2019-02-06T04:23:14.049Z,-5.58
2019-02-06T04:24:14.037Z,-5.61
2019-02-06T04:25:14.021Z,-5.54
2019-02-06T04:26:13.998Z,-5.58
2019-02-06T04:27:14.007Z,-5.65
2019-02-06T04:28:13.966Z,-5.65
2019-02-06T04:29:13.958Z,-5.70
2019-02-06T04:30:13.947Z,-5.56
2019-02-06T04:31:13.931Z,-5.63
2019-02-06T04:32:13.915Z,-5.62
2019-02-06T04:33:13.902Z,-5.67
2019-02-06T04:34:13.886Z,-5.59
2019-02-06T04:35:13.872Z,-5.61
2019-02-06T04:36:13.856Z,-5.62
2019-02-06T04:37:13.840Z,-5.58
2019-02-06T04:38:13.818Z,-5.54
2019-02-06T04:39:13.813Z,-5.58
2019-02-06T04:40:13.795Z,-5.54
2019-02-06T04:41:13.792Z,-5.56
2019-02-06T04:42:13.799Z,-5.51
2019-02-06T04:43:13.750Z,-5.59
2019-02-06T04:44:13.733Z,-5.55
2019-02-06T04:45:13.718Z,-5.55
2019-02-06T04:46:13.701Z,-5.51
2019-02-06T04:47:13.688Z,-5.61
2019-02-06T04:48:13.682Z,-5.58
2019-02-06T04:49:13.651Z,-5.56
2019-02-06T04:50:13.643Z,-5.52
2019-02-06T04:51:13.628Z,-5.51
2019-02-06T04:52:13.613Z,-5.45
2019-02-06T04:53:13.590Z,-5.59
2019-02-06T04:54:13.587Z,-5.63
2019-02-06T04:55:13.574Z,-5.65
2019-02-06T04:56:13.561Z,-5.67
2019-02-06T04:57:13.535Z,-5.62
2019-02-06T04:58:13.521Z,-5.62
2019-02-06T04:59:13.506Z,-5.52
2019-02-06T05:00:13.490Z,-5.52
2019-02-06T05:01:13.476Z,-5.49
2019-02-06T05:02:13.463Z,-5.49
2019-02-06T05:03:13.445Z,-5.41
2019-02-06T05:04:13.427Z,-5.55
2019-02-06T05:05:13.419Z,-5.38
2019-02-06T05:06:13.403Z,-5.38
2019-02-06T05:07:19.321Z,-5.33
2019-02-06T05:08:13.370Z,-5.31
2019-02-06T05:09:13.354Z,-5.51
2019-02-06T05:10:13.345Z,-5.45
2019-02-06T05:11:13.364Z,-5.49
2019-02-06T05:12:13.309Z,-5.38
2019-02-06T05:13:13.320Z,-5.44
2019-02-06T05:14:13.279Z,-5.51
2019-02-06T05:15:13.323Z,-5.52
2019-02-06T05:16:13.271Z,-5.56
2019-02-06T05:17:13.237Z,-5.61
2019-02-06T05:18:13.218Z,-5.61
2019-02-06T05:19:13.199Z,-5.65
2019-02-06T05:20:13.192Z,-5.58
2019-02-06T05:21:13.174Z,-5.69
2019-02-06T05:22:13.147Z,-5.58
2019-02-06T05:23:13.145Z,-5.62
2019-02-06T05:24:13.127Z,-5.65
2019-02-06T05:25:13.114Z,-5.49
2019-02-06T05:26:13.097Z,-5.58
2019-02-06T05:27:13.082Z,-5.65
2019-02-06T05:28:13.067Z,-5.67
2019-02-06T05:29:13.052Z,-5.63
2019-02-06T05:30:13.037Z,-5.65
2019-02-06T05:31:13.022Z,-5.65
2019-02-06T05:32:13.006Z,-5.61
2019-02-06T05:33:12.990Z,-5.56
2019-02-06T05:34:12.976Z,-5.47
2019-02-06T05:35:12.965Z,-5.51
2019-02-06T05:36:12.935Z,-5.41
2019-02-06T05:37:12.944Z,-5.38
2019-02-06T05:38:12.921Z,-5.34
2019-02-06T05:39:12.902Z,-5.40
2019-02-06T05:40:12.899Z,-5.33
2019-02-06T05:41:13.681Z,-5.34
2019-02-06T05:42:12.855Z,-5.31
2019-02-06T05:43:12.840Z,-5.27
2019-02-06T05:44:12.824Z,-5.26
2019-02-06T05:45:12.810Z,-5.30
2019-02-06T05:46:12.794Z,-5.26
2019-02-06T05:47:12.779Z,-5.26
2019-02-06T05:48:12.765Z,-5.25
2019-02-06T05:49:12.752Z,-5.31
2019-02-06T05:50:12.734Z,-5.31
2019-02-06T05:51:12.716Z,-5.35
2019-02-06T05:52:12.700Z,-5.41
2019-02-06T05:53:12.706Z,-5.45
2019-02-06T05:54:12.676Z,-5.47
2019-02-06T05:55:12.664Z,-5.51
2019-02-06T05:56:12.635Z,-5.41
2019-02-06T05:57:12.623Z,-5.41
2019-02-06T05:58:12.631Z,-5.27
2019-02-06T05:59:12.598Z,-5.45
2019-02-06T06:00:12.586Z,-5.44
2019-02-06T06:01:12.571Z,-5.35
2019-02-06T06:02:12.554Z,-5.37
2019-02-06T06:03:12.542Z,-5.27
2019-02-06T06:04:12.521Z,-5.40
2019-02-06T06:05:12.567Z,-5.41
2019-02-06T06:06:12.574Z,-5.38
2019-02-06T06:07:12.469Z,-5.40
2019-02-06T06:08:12.461Z,-5.43
2019-02-06T06:09:12.447Z,-5.47
2019-02-06T06:10:12.432Z,-5.44
2019-02-06T06:11:12.414Z,-5.27
2019-02-06T06:12:12.414Z,-5.43
2019-02-06T06:13:12.400Z,-5.40
2019-02-06T06:14:12.373Z,-5.61
2019-02-06T06:15:12.357Z,-5.47
2019-02-06T06:16:12.342Z,-5.54
2019-02-06T06:17:12.326Z,-5.52
2019-02-06T06:18:12.314Z,-5.52
2019-02-06T06:19:12.289Z,-5.55
2019-02-06T06:20:12.279Z,-5.45
2019-02-06T06:21:12.271Z,-5.54
2019-02-06T06:22:12.250Z,-5.49
2019-02-06T06:23:12.234Z,-5.59
2019-02-06T06:24:12.219Z,-5.55
2019-02-06T06:25:12.206Z,-5.54
2019-02-06T06:26:12.187Z,-5.54
2019-02-06T06:27:12.181Z,-5.51
2019-02-06T06:28:12.159Z,-5.55
2019-02-06T06:29:12.146Z,-5.54
2019-02-06T06:30:12.140Z,-5.61
2019-02-06T06:31:12.111Z,-5.59
2019-02-06T06:32:12.098Z,-5.47
2019-02-06T06:33:12.075Z,-5.47
2019-02-06T06:34:12.069Z,-5.55
2019-02-06T06:35:12.053Z,-5.49
2019-02-06T06:36:12.038Z,-5.40
2019-02-06T06:37:12.023Z,-5.40
2019-02-06T06:38:12.005Z,-5.41
2019-02-06T06:39:11.993Z,-5.31
2019-02-06T06:40:11.975Z,-5.35
2019-02-06T06:41:11.953Z,-5.34
2019-02-06T06:42:11.947Z,-5.37
2019-02-06T06:43:15.852Z,-5.52
2019-02-06T06:44:11.916Z,-5.55
2019-02-06T06:45:11.907Z,-5.47
2019-02-06T06:46:11.885Z,-5.44
2019-02-06T06:47:11.871Z,-5.54
2019-02-06T06:48:11.853Z,-5.47
2019-02-06T06:49:11.840Z,-5.49
2019-02-06T06:50:11.826Z,-5.51
2019-02-06T06:51:11.809Z,-5.51
2019-02-06T06:52:11.799Z,-5.51
2019-02-06T06:53:11.782Z,-5.51
2019-02-06T06:54:11.767Z,-5.45
2019-02-06T06:55:11.750Z,-5.52
2019-02-06T06:56:13.668Z,-5.44
2019-02-06T06:57:12.443Z,-5.38
2019-02-06T06:58:11.695Z,-5.41
2019-02-06T06:59:11.687Z,-5.43
2019-02-06T07:00:11.674Z,-5.37
2019-02-06T07:01:11.778Z,-5.37
2019-02-06T07:02:11.644Z,-5.27
2019-02-06T07:03:11.625Z,-5.33
2019-02-06T07:04:11.623Z,-5.43
2019-02-06T07:05:11.596Z,-5.31
2019-02-06T07:06:11.582Z,-5.38
2019-02-06T07:07:11.566Z,-5.27
2019-02-06T07:08:13.402Z,-5.27
2019-02-06T07:09:11.534Z,-5.27
2019-02-06T07:10:12.342Z,-5.25
2019-02-06T07:11:11.497Z,-5.14
2019-02-06T07:12:11.513Z,-5.16
2019-02-06T07:13:11.514Z,-5.23
2019-02-06T07:14:11.501Z,-5.12
2019-02-06T07:15:11.446Z,-5.11
2019-02-06T07:16:11.452Z,-5.26
2019-02-06T07:17:11.415Z,-5.25
2019-02-06T07:18:11.404Z,-5.30
2019-02-06T07:19:11.381Z,-5.12
2019-02-06T07:20:11.371Z,-4.97
2019-02-06T07:21:11.356Z,-4.94
2019-02-06T07:22:11.345Z,-4.89
2019-02-06T07:23:11.371Z,-4.89
2019-02-06T07:24:11.313Z,-4.85
2019-02-06T07:25:11.297Z,-4.75
2019-02-06T07:26:11.275Z,-4.94
2019-02-06T07:27:11.268Z,-4.95
2019-02-06T07:28:11.259Z,-4.95
2019-02-06T07:29:11.236Z,-4.83
2019-02-06T07:30:11.223Z,-4.91
2019-02-06T07:31:11.206Z,-5.00
2019-02-06T07:32:11.190Z,-4.97
2019-02-06T07:33:11.197Z,-4.97
2019-02-06T07:34:11.173Z,-5.00
2019-02-06T07:35:11.150Z,-4.93
2019-02-06T07:36:11.156Z,-5.00
2019-02-06T07:37:11.132Z,-5.00
2019-02-06T07:38:22.359Z,-5.01
2019-02-06T07:39:11.081Z,-5.01
2019-02-06T07:40:11.066Z,-4.89
2019-02-06T07:41:11.063Z,-4.82
2019-02-06T07:42:11.047Z,-4.87
2019-02-06T07:43:11.038Z,-4.91
2019-02-06T07:44:13.378Z,-4.95
2019-02-06T07:45:11.005Z,-4.89
2019-02-06T07:46:12.751Z,-4.97
2019-02-06T07:47:10.967Z,-4.89
2019-02-06T07:48:10.957Z,-4.93
2019-02-06T07:49:10.948Z,-4.69
2019-02-06T07:50:10.931Z,-4.75
2019-02-06T07:51:10.917Z,-4.66
2019-02-06T07:52:10.901Z,-4.71
2019-02-06T07:53:10.906Z,-4.69
2019-02-06T07:54:10.874Z,-4.66
2019-02-06T07:55:10.860Z,-4.71
2019-02-06T07:56:10.855Z,-4.71
2019-02-06T07:57:10.837Z,-4.61
2019-02-06T07:58:10.818Z,-4.65
2019-02-06T07:59:10.803Z,-4.62
2019-02-06T08:00:10.799Z,-4.69
2019-02-06T08:01:10.772Z,-4.58
2019-02-06T08:02:10.757Z,-4.48
2019-02-06T08:03:10.748Z,-4.41
2019-02-06T08:04:10.732Z,-4.29
2019-02-06T08:05:10.721Z,-4.38
2019-02-06T08:06:10.704Z,-4.46
2019-02-06T08:07:10.695Z,-4.47
2019-02-06T08:08:10.676Z,-4.48
2019-02-06T08:09:10.663Z,-4.55
2019-02-06T08:10:10.652Z,-4.40
2019-02-06T08:11:10.635Z,-4.32
2019-02-06T08:12:10.623Z,-4.15
2019-02-06T08:13:10.606Z,-4.09
2019-02-06T08:14:10.593Z,-4.09
2019-02-06T08:15:10.578Z,-4.20
2019-02-06T08:16:10.569Z,-4.12
2019-02-06T08:17:10.554Z,-4.12
2019-02-06T08:18:10.540Z,-4.09
2019-02-06T08:19:10.528Z,-4.05
2019-02-06T08:20:10.516Z,-4.01
2019-02-06T08:21:10.502Z,-4.05
2019-02-06T08:22:10.493Z,-4.05
2019-02-06T08:23:10.474Z,-3.90
2019-02-06T08:24:10.448Z,-3.80
2019-02-06T08:25:10.442Z,-3.61
2019-02-06T08:26:10.437Z,-3.67
2019-02-06T08:27:10.420Z,-3.53
2019-02-06T08:28:10.433Z,-3.43
2019-02-06T08:29:10.414Z,-3.43
2019-02-06T08:30:10.385Z,-3.62
2019-02-06T08:31:10.370Z,-3.65
2019-02-06T08:32:10.355Z,-3.64
2019-02-06T08:33:10.348Z,-3.53
2019-02-06T08:34:10.328Z,-3.43
2019-02-06T08:35:10.315Z,-3.28
2019-02-06T08:36:10.354Z,-3.22
2019-02-06T08:37:10.305Z,-3.14
2019-02-06T08:38:10.278Z,-3.18
2019-02-06T08:39:10.266Z,-3.41
2019-02-06T08:40:10.274Z,-3.44
2019-02-06T08:41:10.241Z,-3.36
2019-02-06T08:42:10.234Z,-3.35
2019-02-06T08:43:10.216Z,-3.26
2019-02-06T08:44:10.207Z,-3.33
2019-02-06T08:45:10.187Z,-3.26
2019-02-06T08:46:10.180Z,-3.36
2019-02-06T08:47:10.167Z,-3.43
2019-02-06T08:48:10.155Z,-3.31
2019-02-06T08:49:10.952Z,-3.35
2019-02-06T08:50:10.141Z,-3.38
2019-02-06T08:51:10.119Z,-3.49
2019-02-06T08:52:10.115Z,-3.46
2019-02-06T08:53:10.095Z,-3.32
2019-02-06T08:54:10.106Z,-3.18
2019-02-06T08:55:10.092Z,-3.15
2019-02-06T08:56:10.069Z,-3.00
2019-02-06T08:57:10.063Z,-3.08
2019-02-06T08:58:10.035Z,-3.13
2019-02-06T08:59:10.022Z,-3.04
2019-02-06T09:00:10.006Z,-3.02
2019-02-06T09:01:09.994Z,-2.92
2019-02-06T09:02:09.986Z,-2.92
2019-02-06T09:03:09.979Z,-2.82
2019-02-06T09:04:09.951Z,-2.81
2019-02-06T09:05:09.967Z,-2.74
2019-02-06T09:06:09.936Z,-2.93
2019-02-06T09:07:09.928Z,-2.96
2019-02-06T09:08:09.911Z,-2.87
2019-02-06T09:09:09.907Z,-3.02
2019-02-06T09:10:09.891Z,-3.07
2019-02-06T09:11:09.880Z,-2.92
2019-02-06T09:12:09.882Z,-2.76
2019-02-06T09:13:09.856Z,-2.82
2019-02-06T09:14:09.844Z,-2.66
2019-02-06T09:15:09.834Z,-2.75
2019-02-06T09:16:09.810Z,-2.68
2019-02-06T09:17:09.809Z,-2.63
2019-02-06T09:18:09.790Z,-2.66
2019-02-06T09:19:09.795Z,-2.57
2019-02-06T09:20:09.778Z,-2.58
2019-02-06T09:21:09.764Z,-2.54
2019-02-06T09:22:09.752Z,-2.48
2019-02-06T09:23:09.740Z,-2.33
2019-02-06T09:24:09.721Z,-2.24
2019-02-06T09:25:09.717Z,-2.17
2019-02-06T09:26:11.955Z,-2.16
2019-02-06T09:27:09.694Z,-2.16
2019-02-06T09:28:09.698Z,-2.14
2019-02-06T09:29:09.666Z,-2.35
2019-02-06T09:30:09.674Z,-2.43
2019-02-06T09:31:09.664Z,-2.36
2019-02-06T09:32:09.644Z,-2.28
2019-02-06T09:33:09.636Z,-2.08
2019-02-06T09:34:09.925Z,-2.00
2019-02-06T09:35:09.608Z,-1.95
2019-02-06T09:36:09.593Z,-2.03
2019-02-06T09:37:09.589Z,-1.98
2019-02-06T09:38:09.575Z,-1.80
2019-02-06T09:39:11.780Z,-1.93
2019-02-06T09:40:09.567Z,-1.93
2019-02-06T09:41:09.548Z,-2.02
2019-02-06T09:42:09.540Z,-1.92
2019-02-06T09:43:09.531Z,-1.99
2019-02-06T09:44:09.553Z,-2.06
2019-02-06T09:45:09.502Z,-2.05
2019-02-06T09:46:09.493Z,-2.10
2019-02-06T09:47:09.480Z,-1.98
2019-02-06T09:48:09.477Z,-1.84
2019-02-06T09:49:09.475Z,-1.99
2019-02-06T09:50:09.454Z,-2.03
2019-02-06T09:51:09.447Z,-1.99
2019-02-06T09:52:09.576Z,-1.81
2019-02-06T09:53:09.427Z,-1.90
2019-02-06T09:54:09.417Z,-2.05
2019-02-06T09:55:09.410Z,-2.02
2019-02-06T09:56:09.398Z,-2.00
2019-02-06T09:57:09.391Z,-1.77
2019-02-06T09:58:09.387Z,-1.62
2019-02-06T09:59:09.368Z,-1.57
2019-02-06T10:00:09.359Z,-1.49
2019-02-06T10:01:09.349Z,-1.49
2019-02-06T10:02:09.632Z,-1.45
2019-02-06T10:03:09.338Z,-1.62
2019-02-06T10:04:09.320Z,-1.64
2019-02-06T10:05:09.303Z,-1.53
2019-02-06T10:06:09.298Z,-1.36
2019-02-06T10:07:09.300Z,-1.28
2019-02-06T10:08:09.289Z,-1.57
2019-02-06T10:09:09.272Z,-1.57
2019-02-06T10:10:09.263Z,-1.28
2019-02-06T10:11:09.243Z,-1.17
2019-02-06T10:12:11.885Z,-1.06
2019-02-06T10:13:09.235Z,-0.86
2019-02-06T10:14:09.226Z,-0.54
2019-02-06T10:15:09.210Z,-0.34
2019-02-06T10:16:09.206Z,-0.59
2019-02-06T10:17:09.198Z,-0.60
2019-02-06T10:18:09.192Z,-0.54
2019-02-06T10:19:09.174Z,-0.54
2019-02-06T10:20:09.200Z,-0.50
2019-02-06T10:21:09.160Z,-0.39
2019-02-06T10:22:09.155Z,-0.55
2019-02-06T10:23:09.153Z,-0.54
2019-02-06T10:24:09.138Z,-0.54
2019-02-06T10:25:09.131Z,-0.45
2019-02-06T10:26:09.121Z,-0.57
2019-02-06T10:27:09.113Z,-0.42
2019-02-06T10:28:09.105Z,-0.30
2019-02-06T10:29:09.111Z,-0.47
2019-02-06T10:30:09.088Z,-0.73
2019-02-06T10:31:09.083Z,-0.69
2019-02-06T10:32:09.073Z,-0.41
2019-02-06T10:33:09.057Z,-0.24
2019-02-06T10:34:09.057Z,-0.24
2019-02-06T10:35:09.047Z,-0.22
2019-02-06T10:36:09.040Z,0.00
2019-02-06T10:37:09.031Z,-0.09
2019-02-06T10:38:09.024Z,-0.26
2019-02-06T10:39:09.022Z,-0.54
2019-02-06T10:40:09.003Z,-0.99
2019-02-06T10:41:09.002Z,-1.28
2019-02-06T10:42:08.989Z,-1.23
2019-02-06T10:43:08.977Z,-1.30
2019-02-06T10:44:08.975Z,-1.42
2019-02-06T10:45:08.969Z,-1.24
2019-02-06T10:46:08.968Z,-1.05
2019-02-06T10:47:08.955Z,-0.89
2019-02-06T10:48:08.946Z,-0.78
2019-02-06T10:49:08.938Z,-0.73
2019-02-06T10:50:08.934Z,-0.44
2019-02-06T10:51:08.931Z,-0.24
2019-02-06T10:52:08.931Z,-0.11
2019-02-06T10:53:08.904Z,0.31
2019-02-06T10:54:08.893Z,0.21
2019-02-06T10:55:08.895Z,0.28
2019-02-06T10:56:08.888Z,0.33
2019-02-06T10:57:10.218Z,-0.01
2019-02-06T10:58:08.867Z,-0.24
2019-02-06T10:59:08.877Z,-0.29
2019-02-06T11:00:08.859Z,-0.33
2019-02-06T11:01:08.873Z,-0.37
2019-02-06T11:02:08.864Z,-0.39
2019-02-06T11:03:08.837Z,-0.30
2019-02-06T11:04:08.831Z,-0.34
2019-02-06T11:05:08.826Z,-0.09
2019-02-06T11:06:08.817Z,0.21
2019-02-06T11:07:08.812Z,0.51
2019-02-06T11:08:08.805Z,0.90
2019-02-06T11:09:08.798Z,1.19
2019-02-06T11:10:08.793Z,1.21
2019-02-06T11:11:08.784Z,1.36
2019-02-06T11:12:08.781Z,1.60
2019-02-06T11:13:08.770Z,1.54
2019-02-06T11:14:08.762Z,1.37
2019-02-06T11:15:08.758Z,1.07
2019-02-06T11:16:08.745Z,1.15
2019-02-06T11:17:08.739Z,1.14
2019-02-06T11:18:08.733Z,1.43
2019-02-06T11:19:08.726Z,1.89
2019-02-06T11:20:08.721Z,1.83
2019-02-06T11:21:08.735Z,1.50
2019-02-06T11:22:08.708Z,1.51
2019-02-06T11:23:08.706Z,1.28
2019-02-06T11:24:08.822Z,1.51
2019-02-06T11:25:08.689Z,1.57
2019-02-06T11:26:08.682Z,1.75
2019-02-06T11:27:08.677Z,2.08
2019-02-06T11:28:08.669Z,2.33
2019-02-06T11:29:08.788Z,2.66
2019-02-06T11:30:08.661Z,2.46
2019-02-06T11:31:08.659Z,2.10
2019-02-06T11:32:08.646Z,1.89
2019-02-06T11:33:08.643Z,1.79
2019-02-06T11:34:08.626Z,1.72
2019-02-06T11:35:08.628Z,1.99
2019-02-06T11:36:08.623Z,2.30
2019-02-06T11:37:08.613Z,1.94
2019-02-06T11:38:08.603Z,1.52
2019-02-06T11:39:08.607Z,1.39
2019-02-06T11:40:08.596Z,1.25
2019-02-06T11:41:08.590Z,1.42
2019-02-06T11:42:08.588Z,1.62
2019-02-06T11:43:08.580Z,1.82
2019-02-06T11:44:08.576Z,1.93
2019-02-06T11:45:08.572Z,1.61
2019-02-06T11:46:09.221Z,1.26
2019-02-06T11:47:08.585Z,1.57
2019-02-06T11:48:08.550Z,1.43
2019-02-06T11:49:08.549Z,1.07
2019-02-06T11:50:08.543Z,1.36
2019-02-06T11:51:08.533Z,1.62
2019-02-06T11:52:08.525Z,1.51
2019-02-06T11:53:08.523Z,1.18
2019-02-06T11:54:08.521Z,1.18
2019-02-06T11:55:08.815Z,1.16
2019-02-06T11:56:08.504Z,1.29
2019-02-06T11:57:08.501Z,1.58
2019-02-06T11:58:08.514Z,1.91
2019-02-06T11:59:08.535Z,1.94
2019-02-06T12:00:08.475Z,2.19
2019-02-06T12:01:08.480Z,2.53
2019-02-06T12:02:08.472Z,2.19
2019-02-06T12:03:08.458Z,1.98
2019-02-06T12:04:08.469Z,1.91
2019-02-06T12:05:08.455Z,1.83
2019-02-06T12:06:08.449Z,2.19
2019-02-06T12:07:08.447Z,2.45
2019-02-06T12:08:08.436Z,2.71
2019-02-06T12:09:08.422Z,2.84
2019-02-06T12:10:10.191Z,3.00
2019-02-06T12:11:08.424Z,2.45
2019-02-06T12:12:08.412Z,2.22
2019-02-06T12:13:08.413Z,2.35
2019-02-06T12:14:08.538Z,2.51
2019-02-06T12:15:08.388Z,2.23
2019-02-06T12:16:08.391Z,2.28
2019-02-06T12:17:08.392Z,1.98
2019-02-06T12:18:08.383Z,1.78
2019-02-06T12:19:08.390Z,2.01
2019-02-06T12:20:08.373Z,2.13
2019-02-06T12:21:08.369Z,2.44
2019-02-06T12:22:08.362Z,2.59
2019-02-06T12:23:08.359Z,2.09
2019-02-06T12:24:08.342Z,1.76
2019-02-06T12:25:08.397Z,1.91
2019-02-06T12:26:08.342Z,1.94
2019-02-06T12:27:08.334Z,2.23
2019-02-06T12:28:08.330Z,2.40
2019-02-06T12:29:08.325Z,2.73
2019-02-06T12:30:08.321Z,3.25
2019-02-06T12:31:08.315Z,3.50
2019-02-06T12:32:08.313Z,3.61
2019-02-06T12:33:08.304Z,3.24
2019-02-06T12:34:08.308Z,2.77
2019-02-06T12:35:08.294Z,2.38
2019-02-06T12:36:08.287Z,2.17
2019-02-06T12:37:08.281Z,2.19
2019-02-06T12:38:08.303Z,2.12
2019-02-06T12:39:08.272Z,2.26
2019-02-06T12:40:08.267Z,2.12
2019-02-06T12:41:08.262Z,2.28
2019-02-06T12:42:08.257Z,2.16
2019-02-06T12:43:10.596Z,2.22
2019-02-06T12:44:08.281Z,2.30
2019-02-06T12:45:08.237Z,2.38
2019-02-06T12:46:08.235Z,2.33
2019-02-06T12:47:08.233Z,2.16
2019-02-06T12:48:08.225Z,2.23
2019-02-06T12:49:08.220Z,2.20
2019-02-06T12:50:08.214Z,2.17
2019-02-06T12:51:08.205Z,2.30
2019-02-06T12:52:08.224Z,1.91
2019-02-06T12:53:08.208Z,2.16
2019-02-06T12:54:08.193Z,2.44
2019-02-06T12:55:08.197Z,2.53
2019-02-06T12:56:08.177Z,2.84